Time;durP1;ratioP1;P1;durP2;ratioP2;P2;SDS_P1;SDS_P2;PMS_P1;PMS_P2;Temp;Humidity;BMP_temperature;BMP_pressure;BME280_temperature;BME280_humidity;BME280_pressure;Samples;Min_cycle;Max_cycle;Signal;HPM_P1;HPM_P2
2024/04/09 00:02:07;;;;;;;26.20;7.90;;;;;;;18.15;52.81;95290.19;5405541;26;20232;-70
2024/04/09 00:04:33;;;;;;;27.27;7.37;;;;;;;18.27;52.07;95274.94;5404838;26;20454;-70
2024/04/09 00:06:59;;;;;;;31.00;8.20;;;;;;;18.26;52.57;95273.25;5404966;26;20224;-71
2024/04/09 00:09:29;;;;;;;28.67;8.33;;;;;;;18.11;52.81;95275.53;5405109;26;20454;-70
2024/04/09 00:11:55;;;;;;;15.90;8.30;;;;;;;17.94;53.39;95274.41;5404656;26;20435;-70
2024/04/09 00:14:21;;;;;;;18.50;7.40;;;;;;;17.94;53.53;95261.97;5404789;26;20430;-70
2024/04/09 00:16:47;;;;;;;25.33;9.67;;;;;;;18.04;53.61;95259.31;5405231;26;20435;-70
2024/04/09 00:19:17;;;;;;;20.10;7.10;;;;;;;17.95;53.75;95282.25;5405128;26;20532;-69
2024/04/09 00:21:44;;;;;;;23.40;8.00;;;;;;;17.56;55.09;95270.72;5403530;26;20489;-71
2024/04/09 00:24:10;;;;;;;24.87;7.80;;;;;;;17.50;55.12;95277.44;5404343;26;20442;-70
2024/04/09 00:26:36;;;;;;;23.57;8.37;;;;;;;17.52;55.34;95279.94;5405202;26;21005;-71
2024/04/09 00:29:01;;;;;;;26.53;12.07;;;;;;;17.02;55.89;95266.69;5405378;26;20465;-70
2024/04/09 00:31:27;;;;;;;32.63;9.87;;;;;;;17.47;55.11;95272.38;5405554;26;20284;-71
2024/04/09 00:33:52;;;;;;;30.93;8.57;;;;;;;17.68;54.59;95264.31;5410719;26;20231;-70
2024/04/09 00:36:18;;;;;;;21.33;7.50;;;;;;;17.46;55.39;95262.75;5439287;26;20224;-70
2024/04/09 00:38:49;;;;;;;20.77;7.10;;;;;;;17.71;54.49;95269.34;5440905;26;20269;-70
2024/04/09 00:41:16;;;;;;;20.27;8.13;;;;;;;17.76;54.50;95280.41;5440322;26;21086;-70
2024/04/09 00:43:42;;;;;;;30.17;7.70;;;;;;;17.83;54.36;95271.88;5444450;26;20526;-70
2024/04/09 00:46:10;;;;;;;30.10;10.10;;;;;;;17.85;54.27;95276.06;5445748;26;20441;-71
2024/04/09 00:48:37;;;;;;;20.70;7.77;;;;;;;17.76;54.37;95266.25;5445843;26;20952;-70
2024/04/09 00:51:04;;;;;;;19.23;8.37;;;;;;;17.76;54.26;95267.13;5446821;26;20536;-70
2024/04/09 00:53:32;;;;;;;17.47;6.90;;;;;;;17.73;54.56;95264.72;5446254;26;20920;-70
2024/04/09 00:55:58;;;;;;;29.97;8.40;;;;;;;17.75;54.35;95259.28;5448679;26;20464;-70
2024/04/09 00:58:24;;;;;;;20.07;7.70;;;;;;;17.68;54.62;95269.63;5451358;26;20429;-71
2024/04/09 01:00:52;;;;;;;18.33;6.93;;;;;;;17.69;54.56;95257.19;5451314;26;20572;-70
2024/04/09 01:03:18;;;;;;;24.50;7.83;;;;;;;17.66;54.56;95266.25;5451384;26;20266;-70
2024/04/09 01:05:44;;;;;;;24.77;7.93;;;;;;;17.56;54.76;95263.59;5450833;26;20452;-70
2024/04/09 01:08:09;;;;;;;23.93;7.00;;;;;;;17.56;54.02;95260.94;5444334;26;20331;-71
2024/04/09 01:10:35;;;;;;;16.97;8.53;;;;;;;17.40;55.06;95262.47;5443963;26;20223;-70
2024/04/09 01:13:01;;;;;;;33.07;9.60;;;;;;;17.20;55.51;95267.75;5443370;26;20306;-71
2024/04/09 01:15:27;;;;;;;19.80;6.10;;;;;;;17.32;55.24;95257.84;5443764;26;20231;-71
2024/04/09 01:17:52;;;;;;;23.57;7.63;;;;;;;16.90;56.48;95268.63;5443857;26;20445;-71
2024/04/09 01:20:18;;;;;;;17.93;7.07;;;;;;;17.23;55.96;95277.22;5443682;26;20331;-70
2024/04/09 01:22:43;;;;;;;21.33;7.50;;;;;;;17.24;55.50;95274.41;5443273;26;20227;-70
2024/04/09 01:25:10;;;;;;;23.83;6.30;;;;;;;16.93;56.63;95274.47;5443567;26;20220;-71
2024/04/09 01:27:41;;;;;;;21.60;6.20;;;;;;;17.14;55.88;95271.75;5443276;26;20273;-71
2024/04/09 01:30:08;;;;;;;18.03;6.00;;;;;;;17.22;54.53;95270.22;5443248;26;20425;-70
2024/04/09 01:32:34;;;;;;;21.83;7.10;;;;;;;17.18;53.96;95272.34;5443556;26;20472;-70
2024/04/09 01:35:00;;;;;;;19.67;7.47;;;;;;;17.28;53.97;95272.34;5420408;26;20524;-70
2024/04/09 01:37:28;;;;;;;20.50;6.50;;;;;;;17.10;54.89;95275.66;5407369;26;20224;-71
2024/04/09 01:39:53;;;;;;;25.97;8.07;;;;;;;17.11;55.24;95276.50;5407146;26;20228;-70
2024/04/09 01:42:19;;;;;;;22.23;5.83;;;;;;;17.06;55.58;95270.75;5407049;26;20522;-70
2024/04/09 01:44:44;;;;;;;21.80;6.80;;;;;;;17.25;54.75;95269.97;5407046;26;20236;-69
2024/04/09 01:47:10;;;;;;;21.87;7.60;;;;;;;16.96;55.22;95265.44;5407247;26;20569;-69
2024/04/09 01:49:36;;;;;;;26.27;7.70;;;;;;;16.35;58.27;95260.94;5407315;26;20221;-70
2024/04/09 01:52:02;;;;;;;22.43;8.70;;;;;;;16.52;57.99;95262.97;5407201;26;21340;-69
2024/04/09 01:54:28;;;;;;;17.67;6.93;;;;;;;16.57;57.85;95264.38;5406491;26;20275;-69
2024/04/09 01:56:53;;;;;;;25.37;7.47;;;;;;;16.80;56.56;95265.09;5407343;26;20458;-70
2024/04/09 01:59:18;;;;;;;21.37;8.70;;;;;;;16.95;56.44;95266.38;5407407;26;20228;-71
2024/04/09 02:01:44;;;;;;;20.70;6.80;;;;;;;16.92;55.98;95269.31;5407592;26;20275;-70
2024/04/09 02:04:11;;;;;;;23.30;7.93;;;;;;;17.03;55.58;95269.22;5407066;26;20236;-70
2024/04/09 02:06:36;;;;;;;20.23;6.60;;;;;;;16.88;55.71;95270.56;5407341;26;20228;-70
2024/04/09 02:09:02;;;;;;;18.63;6.70;;;;;;;17.00;55.59;95276.59;5407293;26;20564;-70
2024/04/09 02:11:28;;;;;;;19.50;5.77;;;;;;;16.89;55.66;95274.88;5407107;26;20616;-70
2024/04/09 02:13:55;;;;;;;23.13;6.90;;;;;;;16.91;55.35;95276.44;5406817;26;20275;-71
2024/04/09 02:16:24;;;;;;;18.20;6.03;;;;;;;16.82;55.00;95277.22;5406816;26;20276;-72
2024/04/09 02:18:51;;;;;;;21.80;6.60;;;;;;;16.50;56.53;95270.19;5406901;26;21305;-71
2024/04/09 02:21:17;;;;;;;20.43;5.90;;;;;;;16.80;55.68;95268.56;5406621;26;20439;-71
2024/04/09 02:23:45;;;;;;;21.63;7.03;;;;;;;16.69;56.05;95277.41;5406627;26;20462;-70
2024/04/09 02:26:11;;;;;;;17.00;6.43;;;;;;;16.47;57.41;95280.25;5407047;26;20212;-70
2024/04/09 02:28:36;;;;;;;14.83;6.90;;;;;;;16.26;58.57;95277.59;5406936;26;20485;-69
2024/04/09 02:31:05;;;;;;;19.67;6.73;;;;;;;16.24;57.44;95279.53;5407143;26;20224;-71
2024/04/09 02:33:31;;;;;;;18.43;5.93;;;;;;;16.30;57.95;95269.25;5407942;26;20236;-71
2024/04/09 02:36:06;;;;;;;16.63;5.67;;;;;;;16.55;57.34;95272.47;5443677;26;20449;-70
2024/04/09 02:38:36;;;;;;;17.37;6.00;;;;;;;16.65;56.96;95268.06;5442849;26;20699;-71
2024/04/09 02:41:16;;;;;;;12.30;5.13;;;;;;;16.69;56.77;95269.47;5443158;26;20441;-70
2024/04/09 02:43:42;;;;;;;18.33;6.20;;;;;;;16.79;56.41;95271.34;5442800;26;20468;-70
2024/04/09 02:46:08;;;;;;;15.63;6.33;;;;;;;16.87;56.35;95272.38;5443307;26;21383;-70
2024/04/09 02:48:34;;;;;;;17.47;6.23;;;;;;;16.45;57.20;95271.56;5443042;26;20279;-71
2024/04/09 02:51:03;;;;;;;27.20;6.37;;;;;;;16.40;57.36;95274.63;5442211;26;20537;-70
2024/04/09 02:53:29;;;;;;;22.43;6.20;;;;;;;16.67;56.75;95275.88;5442168;26;20472;-71
2024/04/09 02:56:10;;;;;;;23.70;6.53;;;;;;;16.67;57.07;95262.63;5442617;26;20457;-70
2024/04/09 02:58:35;;;;;;;25.57;8.50;;;;;;;16.79;56.41;95268.69;5442438;26;20258;-71
2024/04/09 03:01:09;;;;;;;15.50;5.60;;;;;;;16.88;55.60;95266.09;5442619;26;20448;-70
2024/04/09 03:03:35;;;;;;;21.87;6.57;;;;;;;16.50;57.76;95261.44;5442159;26;20285;-70
2024/04/09 03:06:07;;;;;;;21.20;8.30;;;;;;;16.46;59.03;95267.94;5442389;26;21199;-70
2024/04/09 03:08:34;;;;;;;26.23;9.63;;;;;;;16.53;58.69;95271.75;5445422;26;20445;-70
2024/04/09 03:10:59;;;;;;;20.93;9.17;;;;;;;16.52;58.97;95275.38;5450858;26;20504;-70
2024/04/09 03:13:26;;;;;;;20.97;8.30;;;;;;;16.41;59.53;95288.69;5449598;26;20836;-70
2024/04/09 03:15:52;;;;;;;22.67;8.30;;;;;;;16.41;59.77;95283.41;5448451;26;20278;-72
2024/04/09 03:18:17;;;;;;;17.77;8.30;;;;;;;16.39;59.41;95290.63;5442412;26;20449;-70
2024/04/09 03:20:43;;;;;;;17.70;7.47;;;;;;;16.29;59.70;95286.09;5442011;26;20220;-70
2024/04/09 03:23:08;;;;;;;13.50;7.27;;;;;;;16.37;59.20;95295.19;5441878;26;20231;-70
2024/04/09 03:25:34;;;;;;;19.80;8.57;;;;;;;16.36;59.23;95290.88;5442348;26;20262;-69
2024/04/09 03:27:59;;;;;;;18.20;8.17;;;;;;;16.30;59.65;95290.44;5442472;26;20269;-69
2024/04/09 03:30:24;;;;;;;25.73;9.20;;;;;;;15.95;60.64;95288.09;5443124;26;20227;-70
2024/04/09 03:32:53;;;;;;;18.50;9.27;;;;;;;16.18;60.33;95288.84;5443788;26;21042;-70
2024/04/09 03:35:19;;;;;;;21.30;8.33;;;;;;;16.31;59.13;95285.97;5415495;26;20241;-71
2024/04/09 03:37:44;;;;;;;20.60;9.73;;;;;;;16.32;58.78;95289.47;5407728;26;20536;-70
2024/04/09 03:40:10;;;;;;;23.30;8.73;;;;;;;16.21;59.36;95290.38;5406732;26;20288;-70
2024/04/09 03:42:36;;;;;;;21.83;8.60;;;;;;;16.07;59.92;95289.72;5407910;26;20264;-70
2024/04/09 03:45:01;;;;;;;17.80;7.80;;;;;;;15.96;60.08;95292.41;5405824;26;20594;-70
2024/04/09 03:47:27;;;;;;;17.97;8.00;;;;;;;16.18;59.35;95290.63;5409502;26;20533;-70
2024/04/09 03:49:53;;;;;;;18.33;7.40;;;;;;;16.23;58.95;95286.63;5407827;26;20683;-71
2024/04/09 03:52:18;;;;;;;15.47;8.20;;;;;;;16.03;59.04;95290.09;5413049;26;20304;-71
2024/04/09 03:54:46;;;;;;;22.53;9.50;;;;;;;16.16;59.25;95293.41;5412901;26;20590;-70
2024/04/09 03:57:11;;;;;;;19.90;7.60;;;;;;;16.25;58.22;95300.59;5414040;26;20838;-70
2024/04/09 03:59:37;;;;;;;16.83;7.00;;;;;;;16.28;58.47;95292.38;5412582;26;20462;-71
2024/04/09 04:02:03;;;;;;;18.70;7.60;;;;;;;16.08;58.33;95290.56;5408853;26;20220;-70
2024/04/09 04:04:29;;;;;;;40.83;8.40;;;;;;;16.10;57.71;95293.91;5405430;26;20232;-70
2024/04/09 04:06:54;;;;;;;29.33;8.13;;;;;;;16.21;57.19;95287.75;5403679;26;20908;-70
2024/04/09 04:09:23;;;;;;;19.77;7.27;;;;;;;16.26;57.60;95291.66;5405369;26;20321;-70
2024/04/09 04:11:49;;;;;;;25.27;6.90;;;;;;;15.67;58.78;95305.38;5405385;26;21193;-71
2024/04/09 04:14:14;;;;;;;12.77;6.80;;;;;;;16.06;57.37;95295.13;5405006;26;20450;-71
2024/04/09 04:16:39;;;;;;;23.80;7.50;;;;;;;16.14;58.00;95295.34;5407056;26;20741;-70
2024/04/09 04:19:05;;;;;;;14.37;6.80;;;;;;;15.77;58.49;95298.38;5409333;26;20232;-70
2024/04/09 04:21:31;;;;;;;14.27;5.73;;;;;;;15.98;57.36;95301.06;5408890;26;20829;-70
2024/04/09 04:23:56;;;;;;;24.67;7.30;;;;;;;15.70;58.89;95312.22;5408644;26;20761;-70
2024/04/09 04:26:23;;;;;;;15.20;6.30;;;;;;;15.78;58.20;95315.09;5409440;26;20217;-71
2024/04/09 04:28:51;;;;;;;19.93;6.70;;;;;;;15.87;57.83;95314.34;5407297;26;20358;-70
2024/04/09 04:31:18;;;;;;;17.80;6.07;;;;;;;15.78;58.18;95312.44;5409230;26;20503;-69
2024/04/09 04:33:45;;;;;;;28.43;7.23;;;;;;;15.88;57.40;95332.75;5412898;26;20515;-71
2024/04/09 04:36:12;;;;;;;19.27;6.67;;;;;;;16.05;56.96;95328.69;5445496;26;20495;-71
2024/04/09 04:38:38;;;;;;;24.43;6.10;;;;;;;15.98;56.30;95332.00;5443140;26;20480;-70
2024/04/09 04:41:04;;;;;;;19.27;6.23;;;;;;;16.12;55.58;95323.75;5445989;26;20437;-70
2024/04/09 04:43:30;;;;;;;17.33;6.53;;;;;;;15.97;55.61;95331.16;5445861;26;20813;-69
2024/04/09 04:45:56;;;;;;;16.60;6.23;;;;;;;16.15;55.61;95334.06;5446435;26;20324;-70
2024/04/09 04:48:22;;;;;;;18.93;6.27;;;;;;;16.20;54.33;95336.34;5446587;26;21345;-70
2024/04/09 04:50:48;;;;;;;16.70;6.47;;;;;;;16.36;53.74;95341.19;5446075;26;20270;-70
2024/04/09 04:53:14;;;;;;;19.37;6.13;;;;;;;16.38;53.25;95341.91;5445953;26;20282;-70
2024/04/09 04:55:40;;;;;;;19.30;6.67;;;;;;;16.39;52.50;95338.28;5446175;26;20460;-70
2024/04/09 04:58:06;;;;;;;20.43;6.50;;;;;;;16.41;52.13;95337.19;5445473;26;20215;-70
2024/04/09 05:00:33;;;;;;;15.73;5.70;;;;;;;16.49;51.94;95341.84;5445305;26;20309;-70
2024/04/09 05:02:59;;;;;;;32.33;7.50;;;;;;;16.38;51.41;95339.25;5412454;26;20474;-71
2024/04/09 05:05:24;;;;;;;19.77;6.90;;;;;;;16.32;52.05;95334.47;5409409;26;20568;-70
2024/04/09 05:07:50;;;;;;;12.03;4.37;;;;;;;17.29;57.25;95332.34;5409110;26;20294;-69
2024/04/09 05:10:19;;;;;;;17.97;5.23;;;;;;;17.93;55.67;95331.97;5409208;26;20826;-71
2024/04/09 05:12:46;;;;;;;15.73;5.67;;;;;;;18.10;52.52;95334.91;5409805;26;20473;-67
2024/04/09 05:15:14;;;;;;;21.93;6.03;;;;;;;18.23;51.27;95332.81;5411419;26;20442;-69
2024/04/09 05:17:41;;;;;;;15.20;5.60;;;;;;;18.35;52.52;95338.81;5410106;26;21107;-70
2024/04/09 05:20:10;;;;;;;20.73;5.10;;;;;;;18.57;49.85;95321.75;5410462;26;20823;-68
2024/04/09 05:22:39;;;;;;;8.97;4.63;;;;;;;18.53;53.57;95341.59;5409599;26;20466;-69
2024/04/09 05:25:06;;;;;;;20.73;5.97;;;;;;;18.59;48.74;95335.69;5408810;26;20462;-69
2024/04/09 05:27:32;;;;;;;16.33;5.63;;;;;;;18.50;52.55;95342.72;5408783;26;20454;-68
2024/04/09 05:29:58;;;;;;;19.57;6.77;;;;;;;18.12;51.72;95336.44;5409709;26;20495;-68
2024/04/09 05:32:24;;;;;;;23.13;6.40;;;;;;;18.06;50.17;95344.97;5407117;26;21195;-68
2024/04/09 05:34:49;;;;;;;36.53;9.20;;;;;;;18.23;51.95;95362.00;5428304;26;20405;-68
2024/04/09 05:37:15;;;;;;;22.57;6.50;;;;;;;18.49;49.58;95362.28;5445106;26;20445;-71
2024/04/09 05:39:42;;;;;;;29.90;7.17;;;;;;;18.20;48.27;95367.63;5445940;26;20942;-69
2024/04/09 05:42:09;;;;;;;16.83;6.70;;;;;;;17.12;49.11;95371.78;5444441;26;20517;-70
2024/04/09 05:44:35;;;;;;;25.90;7.73;;;;;;;16.70;50.10;95374.47;5443920;26;20460;-70
2024/04/09 05:47:00;;;;;;;19.27;6.57;;;;;;;16.43;50.85;95374.13;5444938;26;20441;-67
2024/04/09 05:49:26;;;;;;;15.10;6.80;;;;;;;16.50;50.52;95380.59;5441610;26;20247;-68
2024/04/09 05:51:51;;;;;;;13.13;6.00;;;;;;;16.35;50.72;95387.19;5451686;26;20312;-70
2024/04/09 05:54:19;;;;;;;22.63;6.30;;;;;;;16.33;51.22;95389.13;5453175;26;20258;-69
2024/04/09 05:56:48;;;;;;;24.17;7.63;;;;;;;16.35;49.96;95393.31;5452599;26;20219;-68
2024/04/09 05:59:14;;;;;;;15.03;6.87;;;;;;;16.48;49.14;95390.47;5452602;26;20445;-69
2024/04/09 06:01:39;;;;;;;19.40;6.77;;;;;;;16.76;47.11;95398.75;5453270;26;20499;-68
2024/04/09 06:04:05;;;;;;;14.50;5.70;;;;;;;16.86;47.01;95408.47;5451221;26;20266;-68
2024/04/09 06:06:30;;;;;;;15.30;7.30;;;;;;;16.99;47.25;95412.75;5451363;26;20794;-68
2024/04/09 06:08:56;;;;;;;20.57;5.40;;;;;;;17.11;47.16;95420.47;5451005;26;20224;-69
2024/04/09 06:11:21;;;;;;;27.43;6.37;;;;;;;16.97;48.24;95415.50;5450392;26;21138;-69
2024/04/09 06:13:47;;;;;;;19.80;5.77;;;;;;;16.90;49.18;95419.66;5448636;26;20231;-68
2024/04/09 06:16:13;;;;;;;19.80;7.13;;;;;;;16.79;49.40;95430.31;5442408;26;20344;-71
2024/04/09 06:18:38;;;;;;;16.27;5.83;;;;;;;16.85;49.28;95440.41;5442608;26;20445;-69
2024/04/09 06:21:04;;;;;;;33.70;8.10;;;;;;;16.80;49.89;95446.09;5442551;26;20533;-69
2024/04/09 06:23:30;;;;;;;17.30;6.60;;;;;;;16.82;49.62;95443.28;5441734;26;20247;-68
2024/04/09 06:25:55;;;;;;;33.67;7.03;;;;;;;16.88;49.61;95446.28;5440456;26;20433;-69
2024/04/09 06:28:21;;;;;;;30.60;9.73;;;;;;;16.88;49.89;95450.75;5442753;26;20258;-69
2024/04/09 06:30:47;;;;;;;19.00;6.20;;;;;;;16.86;49.66;95456.16;5442824;26;20223;-69
2024/04/09 06:33:13;;;;;;;18.50;6.07;;;;;;;17.07;49.11;95472.06;5443107;26;20239;-69
2024/04/09 06:35:39;;;;;;;23.97;8.53;;;;;;;17.20;48.75;95479.00;5444392;26;20567;-68
2024/04/09 06:38:04;;;;;;;22.97;6.87;;;;;;;17.22;48.08;95475.25;5443990;26;20573;-68
2024/04/09 06:40:31;;;;;;;25.33;7.83;;;;;;;17.47;47.41;95470.47;5442521;26;20263;-69
2024/04/09 06:42:57;;;;;;;19.40;7.27;;;;;;;17.60;47.24;95483.50;5446343;26;20572;-70
2024/04/09 06:45:23;;;;;;;20.63;7.80;;;;;;;17.54;47.07;95484.91;5448548;26;20497;-70
2024/04/09 06:47:48;;;;;;;18.47;6.43;;;;;;;17.94;46.45;95479.63;5450018;26;20227;-70
2024/04/09 06:50:15;;;;;;;11.90;6.00;;;;;;;18.27;46.03;95493.56;5454838;26;20267;-69
2024/04/09 06:52:41;;;;;;;14.87;6.27;;;;;;;18.66;44.66;95495.41;5454235;26;20249;-67
2024/04/09 06:55:06;;;;;;;28.60;9.50;;;;;;;18.95;44.17;95498.97;5453110;26;20452;-69
2024/04/09 06:57:31;;;;;;;18.60;7.70;;;;;;;19.37;43.15;95500.41;5443174;26;20219;-69
2024/04/09 06:59:57;;;;;;;16.87;6.10;;;;;;;20.16;50.05;95499.19;5442151;26;20328;-68
2024/04/09 07:02:22;;;;;;;23.43;7.60;;;;;;;20.51;46.10;95512.59;5440291;26;20251;-69
2024/04/09 07:04:48;;;;;;;19.20;7.93;;;;;;;20.42;46.95;95516.16;5441588;26;20266;-68
2024/04/09 07:07:14;;;;;;;23.17;6.50;;;;;;;20.57;42.91;95521.00;5442204;26;20277;-69
2024/04/09 07:09:39;;;;;;;26.13;7.83;;;;;;;20.42;43.39;95516.16;5436195;26;20239;-69
2024/04/09 07:12:05;;;;;;;17.33;6.20;;;;;;;20.19;39.74;95517.53;5431950;26;20239;-69
2024/04/09 07:14:30;;;;;;;19.47;6.90;;;;;;;19.35;39.54;95521.03;5428388;26;20231;-68
2024/04/09 07:16:56;;;;;;;12.83;4.70;;;;;;;19.65;39.84;95527.94;5434679;26;21030;-68
2024/04/09 07:19:21;;;;;;;24.77;5.60;;;;;;;20.32;39.46;95519.88;5439639;26;20273;-68
2024/04/09 07:21:46;;;;;;;27.03;7.73;;;;;;;20.80;39.57;95519.56;5428292;26;20377;-68
2024/04/09 07:24:12;;;;;;;22.50;7.50;;;;;;;21.09;37.71;95519.31;5431460;26;20335;-69
2024/04/09 07:26:37;;;;;;;20.13;6.63;;;;;;;21.06;39.36;95522.31;5439194;26;20234;-69
2024/04/09 07:29:03;;;;;;;21.53;6.03;;;;;;;21.50;39.01;95518.88;5428114;26;20324;-69
2024/04/09 07:31:28;;;;;;;26.17;5.97;;;;;;;21.60;38.18;95524.09;5439467;26;20588;-67
2024/04/09 07:33:54;;;;;;;22.50;6.50;;;;;;;20.90;37.52;95527.50;5435108;26;20235;-69
2024/04/09 07:36:21;;;;;;;19.50;5.90;;;;;;;20.52;38.31;95524.91;5438967;26;20339;-69
2024/04/09 07:38:47;;;;;;;20.00;5.83;;;;;;;20.63;38.40;95539.91;5440557;26;20246;-69
2024/04/09 07:41:13;;;;;;;17.20;5.50;;;;;;;20.31;39.40;95548.31;5415801;26;20530;-69
2024/04/09 07:43:38;;;;;;;25.93;6.30;;;;;;;19.70;40.13;95548.84;5420300;26;20928;-68
2024/04/09 07:46:04;;;;;;;25.33;6.90;;;;;;;19.85;40.45;95550.91;5404480;26;20279;-69
2024/04/09 07:48:30;;;;;;;20.53;6.70;;;;;;;19.69;40.55;95561.31;5410742;26;20275;-68
2024/04/09 07:50:56;;;;;;;12.30;5.23;;;;;;;19.85;40.07;95553.56;5404287;26;20268;-68
2024/04/09 07:53:22;;;;;;;17.20;6.00;;;;;;;19.92;40.11;95550.34;5411597;26;20231;-69
2024/04/09 07:55:47;;;;;;;23.87;7.30;;;;;;;19.84;40.18;95559.88;5440543;26;20331;-68
2024/04/09 07:58:13;;;;;;;21.97;5.80;;;;;;;19.73;40.41;95556.56;5440298;26;20269;-68
2024/04/09 08:00:39;;;;;;;21.93;6.40;;;;;;;19.84;40.45;95559.03;5440187;26;20818;-69
2024/04/09 08:03:05;;;;;;;21.20;5.97;;;;;;;19.65;41.24;95563.41;5440957;26;20231;-68
2024/04/09 08:05:30;;;;;;;19.17;6.30;;;;;;;19.74;40.87;95576.84;5432542;26;20511;-68
2024/04/09 08:07:56;;;;;;;26.03;6.83;;;;;;;19.59;40.73;95579.09;5439453;26;20258;-69
2024/04/09 08:10:21;;;;;;;16.33;4.00;;;;;;;19.54;41.39;95579.53;5426379;26;20266;-68
2024/04/09 08:12:49;;;;;;;17.67;6.03;;;;;;;19.59;41.18;95589.75;5445407;26;20254;-69
2024/04/09 08:15:19;;;;;;;20.50;6.33;;;;;;;19.62;40.96;95602.75;5450469;26;20267;-70
2024/04/09 08:17:48;;;;;;;24.80;6.43;;;;;;;19.58;41.09;95596.03;5429887;26;20514;-69
2024/04/09 08:20:16;;;;;;;21.20;5.23;;;;;;;19.58;40.90;95604.03;5441999;26;20521;-70
2024/04/09 08:22:42;;;;;;;27.10;5.73;;;;;;;19.54;41.36;95610.63;5440449;26;20461;-69
2024/04/09 08:25:08;;;;;;;19.63;5.40;;;;;;;19.55;41.89;95610.47;5440127;26;20463;-71
2024/04/09 08:27:38;;;;;;;29.33;7.30;;;;;;;19.61;41.83;95617.06;5414723;26;20506;-70
2024/04/09 08:30:07;;;;;;;16.87;6.20;;;;;;;19.77;42.49;95627.16;5423094;26;20569;-68
2024/04/09 08:32:34;;;;;;;15.00;5.90;;;;;;;19.75;41.57;95637.09;5439672;26;20984;-69
2024/04/09 08:35:00;;;;;;;19.33;6.00;;;;;;;19.84;42.04;95647.75;5434247;26;20517;-68
2024/04/09 08:37:26;;;;;;;24.93;6.20;;;;;;;19.83;42.20;95658.53;5440005;26;20473;-69
2024/04/09 08:39:55;;;;;;;21.57;5.40;;;;;;;19.82;41.78;95664.84;5424581;26;20584;-68
2024/04/09 08:42:25;;;;;;;23.37;5.37;;;;;;;19.86;42.13;95666.22;5426085;26;20256;-69
2024/04/09 08:44:51;;;;;;;17.30;4.70;;;;;;;19.66;43.02;95671.56;5439539;26;20566;-68
2024/04/09 08:47:20;;;;;;;13.40;4.80;;;;;;;19.46;42.92;95675.19;5439577;26;21164;-69
2024/04/09 08:49:48;;;;;;;15.70;5.13;;;;;;;19.63;43.08;95671.84;5439000;26;20555;-68
2024/04/09 08:52:16;;;;;;;16.67;4.93;;;;;;;19.63;42.97;95673.63;5441312;26;20480;-69
2024/04/09 08:54:41;;;;;;;14.17;5.73;;;;;;;19.74;42.96;95675.34;5438666;26;20464;-69
2024/04/09 08:57:08;;;;;;;14.20;4.53;;;;;;;19.97;43.27;95668.75;5439146;26;20453;-69
2024/04/09 08:59:33;;;;;;;19.90;5.50;;;;;;;20.17;42.64;95663.34;5427569;26;20314;-69
2024/04/09 09:02:16;;;;;;;16.43;5.90;;;;;;;20.42;41.89;95659.22;5403247;26;20454;-70
2024/04/09 09:04:43;;;;;;;20.60;4.53;;;;;;;20.28;42.50;95661.38;5406588;26;20232;-69
2024/04/09 09:07:24;;;;;;;14.03;3.60;;;;;;;20.35;42.15;95679.44;5408085;26;20462;-69
2024/04/09 09:09:58;;;;;;;12.00;4.03;;;;;;;20.25;42.55;95692.81;5407979;26;21019;-70
2024/04/09 09:12:23;;;;;;;8.73;3.93;;;;;;;20.47;42.40;95684.44;5430244;26;20524;-69
2024/04/09 09:14:52;;;;;;;13.90;4.20;;;;;;;20.77;41.57;95692.38;5443459;26;20452;-69
2024/04/09 09:17:18;;;;;;;10.43;4.33;;;;;;;20.88;41.64;95689.47;5443628;26;20227;-70
2024/04/09 09:19:43;;;;;;;11.07;4.37;;;;;;;21.00;41.58;95695.47;5443278;26;20541;-69
2024/04/09 09:22:11;;;;;;;13.87;4.10;;;;;;;20.88;42.02;95690.34;5443807;26;20303;-69
2024/04/09 09:24:38;;;;;;;28.67;5.33;;;;;;;20.71;42.22;95691.13;5443618;26;20278;-70
2024/04/09 09:27:05;;;;;;;19.93;5.67;;;;;;;20.83;42.48;95699.75;5443368;26;20465;-67
2024/04/09 09:29:31;;;;;;;34.23;6.60;;;;;;;21.08;41.92;95691.06;5436010;26;20470;-70
2024/04/09 09:31:57;;;;;;;27.10;4.50;;;;;;;21.12;42.06;95707.63;5438344;26;21461;-69
2024/04/09 09:34:42;;;;;;;10.47;5.20;;;;;;;20.80;42.36;95708.91;5438606;26;20517;-70
2024/04/09 09:37:10;;;;;;;16.43;4.33;;;;;;;20.68;42.96;95718.06;5411692;26;20337;-70
2024/04/09 09:39:40;;;;;;;14.67;3.47;;;;;;;20.55;43.23;95721.06;5423436;26;20480;-69
2024/04/09 09:42:10;;;;;;;16.90;4.37;;;;;;;21.29;48.30;95719.31;5450871;26;20453;-70
2024/04/09 09:44:37;;;;;;;9.90;4.20;;;;;;;21.82;44.93;95731.88;5438281;26;20469;-69
2024/04/09 09:47:05;;;;;;;12.60;2.90;;;;;;;21.31;44.23;95760.03;5439670;26;20502;-69
2024/04/09 09:49:31;;;;;;;18.67;3.27;;;;;;;20.07;47.52;95783.25;5439893;26;20462;-69
2024/04/09 09:51:57;;;;;;;13.17;2.93;;;;;;;19.55;48.92;95791.44;5436774;26;20520;-68
2024/04/09 09:54:23;;;;;;;8.50;1.97;;;;;;;19.24;48.40;95804.81;5441821;26;20505;-68
2024/04/09 09:56:52;;;;;;;8.90;2.13;;;;;;;18.67;49.32;95829.31;5442127;26;20266;-69
2024/04/09 09:59:21;;;;;;;4.53;1.73;;;;;;;18.43;49.34;95832.25;5441565;26;20805;-70
2024/04/09 10:01:49;;;;;;;7.47;1.87;;;;;;;18.18;49.17;95839.59;5441932;26;20457;-70
2024/04/09 10:04:16;;;;;;;5.10;1.33;;;;;;;18.19;49.36;95843.94;5441746;26;20826;-69
2024/04/09 10:06:41;;;;;;;7.80;1.43;;;;;;;17.97;48.84;95840.38;5442085;26;20457;-70
2024/04/09 10:09:07;;;;;;;6.40;0.90;;;;;;;17.56;48.75;95831.31;5439536;26;20483;-70
2024/04/09 10:11:43;;;;;;;10.00;1.60;;;;;;;17.55;48.59;95852.66;5441464;26;20235;-70
2024/04/09 10:14:08;;;;;;;5.43;1.00;;;;;;;17.65;47.98;95842.19;5440830;26;20465;-70
2024/04/09 10:16:34;;;;;;;2.47;1.03;;;;;;;17.45;48.01;95865.00;5435399;26;20514;-69
2024/04/09 10:18:59;;;;;;;4.43;1.30;;;;;;;17.51;48.10;95870.66;5438219;26;20703;-70
2024/04/09 10:21:30;;;;;;;23.63;3.07;;;;;;;17.49;47.28;95864.63;5441846;26;20232;-70
2024/04/09 10:24:01;;;;;;;1.60;0.90;;;;;;;17.37;46.89;95872.72;5411755;26;20228;-68
2024/04/09 10:26:29;;;;;;;6.93;1.87;;;;;;;17.25;46.83;95887.81;5406550;26;20515;-70
2024/04/09 10:29:08;;;;;;;5.33;1.30;;;;;;;16.96;47.09;95888.28;5406312;26;21087;-70
2024/04/09 10:31:43;;;;;;;5.33;1.40;;;;;;;17.51;46.47;95899.84;5431200;26;20485;-70
2024/04/09 10:34:09;;;;;;;1.77;0.70;;;;;;;17.47;46.41;95909.00;5434840;26;20601;-69
2024/04/09 10:36:36;;;;;;;5.03;1.37;;;;;;;17.20;45.98;95930.59;5442294;26;20987;-69
2024/04/09 10:39:03;;;;;;;2.50;0.93;;;;;;;16.86;46.22;95934.97;5441879;26;20585;-68
2024/04/09 10:41:28;;;;;;;28.80;2.90;;;;;;;16.93;46.22;95923.78;5441244;26;21119;-70
2024/04/09 10:43:54;;;;;;;3.10;0.97;;;;;;;16.84;46.22;95929.81;5441009;26;20465;-68
2024/04/09 10:46:20;;;;;;;3.23;0.93;;;;;;;16.88;45.97;95941.84;5440861;26;20400;-70
2024/04/09 10:48:46;;;;;;;4.83;1.37;;;;;;;16.84;46.24;95944.84;5441719;26;20269;-69
2024/04/09 10:51:11;;;;;;;2.30;1.00;;;;;;;16.99;45.67;95954.28;5407943;26;20454;-70
2024/04/09 10:53:37;;;;;;;2.87;1.20;;;;;;;17.04;45.53;95956.59;5405599;26;20699;-69
2024/04/09 10:56:03;;;;;;;8.67;2.00;;;;;;;16.94;45.72;95956.47;5403928;26;20314;-69
2024/04/09 10:58:28;;;;;;;5.40;0.90;;;;;;;16.71;45.98;95963.47;5415957;26;20231;-69
2024/04/09 11:00:57;;;;;;;5.50;1.10;;;;;;;16.74;46.16;95973.81;5441550;26;20270;-68
2024/04/09 11:03:23;;;;;;;2.63;1.10;;;;;;;16.65;45.79;95975.38;5441932;26;20235;-69
2024/04/09 11:05:52;;;;;;;34.83;3.70;;;;;;;16.58;45.83;95960.88;5433779;26;20989;-67
2024/04/09 11:08:28;;;;;;;12.43;2.13;;;;;;;16.77;45.45;95975.41;5441637;26;20596;-70
2024/04/09 11:10:55;;;;;;;10.73;1.73;;;;;;;16.65;45.17;95988.63;5441857;26;20546;-69
2024/04/09 11:13:21;;;;;;;1.63;0.77;;;;;;;16.58;44.93;96011.22;5441318;26;20511;-67
2024/04/09 11:15:47;;;;;;;4.63;1.40;;;;;;;16.28;45.41;96011.69;5442063;26;20881;-68
2024/04/09 11:18:20;;;;;;;17.60;2.50;;;;;;;16.02;46.04;96024.16;5442051;26;20448;-69
2024/04/09 11:20:56;;;;;;;4.50;1.07;;;;;;;16.16;45.82;96039.03;5426569;26;20253;-69
2024/04/09 11:23:25;;;;;;;3.93;1.23;;;;;;;16.13;45.31;96047.19;5426811;26;20464;-68
2024/04/09 11:25:52;;;;;;;3.70;0.90;;;;;;;15.97;45.97;96050.06;5429491;26;20501;-69